sensor_id;sensor_type;location;lat;lon;timestamp;P1;durP1;ratioP1;P2;durP2;ratioP2
12296;SDS011;6211;49.124;9.152;2023-06-01T00:01:47;2.65;;;1.30;;
12296;SDS011;6211;49.124;9.152;2023-06-01T00:04:14;1.52;;;1.42;;
12296;SDS011;6211;49.124;9.152;2023-06-01T00:06:43;2.00;;;1.48;;
12296;SDS011;6211;49.124;9.152;2023-06-01T00:09:10;1.35;;;1.25;;
12296;SDS011;6211;49.124;9.152;2023-06-01T00:11:37;2.20;;;1.13;;
12296;SDS011;6211;49.124;9.152;2023-06-01T00:14:04;1.42;;;1.33;;
12296;SDS011;6211;49.124;9.152;2023-06-01T00:16:31;1.80;;;1.40;;
12296;SDS011;6211;49.124;9.152;2023-06-01T00:18:59;2.05;;;1.33;;
12296;SDS011;6211;49.124;9.152;2023-06-01T00:21:26;2.25;;;1.40;;
12296;SDS011;6211;49.124;9.152;2023-06-01T00:23:55;3.05;;;1.67;;
12296;SDS011;6211;49.124;9.152;2023-06-01T00:26:22;3.33;;;2.00;;
12296;SDS011;6211;49.124;9.152;2023-06-01T00:28:50;3.10;;;1.70;;
12296;SDS011;6211;49.124;9.152;2023-06-01T00:31:17;1.70;;;1.50;;
12296;SDS011;6211;49.124;9.152;2023-06-01T00:33:44;3.17;;;1.80;;
12296;SDS011;6211;49.124;9.152;2023-06-01T00:36:11;1.95;;;1.70;;
12296;SDS011;6211;49.124;9.152;2023-06-01T00:38:38;2.47;;;1.40;;
12296;SDS011;6211;49.124;9.152;2023-06-01T00:41:07;1.58;;;1.42;;
12296;SDS011;6211;49.124;9.152;2023-06-01T00:43:34;2.33;;;1.55;;
12296;SDS011;6211;49.124;9.152;2023-06-01T00:46:01;4.47;;;1.55;;
12296;SDS011;6211;49.124;9.152;2023-06-01T00:48:28;2.08;;;1.58;;
12296;SDS011;6211;49.124;9.152;2023-06-01T00:50:56;1.58;;;1.48;;
12296;SDS011;6211;49.124;9.152;2023-06-01T00:53:24;5.55;;;1.60;;
12296;SDS011;6211;49.124;9.152;2023-06-01T00:55:51;1.98;;;1.50;;
12296;SDS011;6211;49.124;9.152;2023-06-01T00:58:20;2.53;;;1.25;;
12296;SDS011;6211;49.124;9.152;2023-06-01T01:00:47;1.92;;;1.60;;
12296;SDS011;6211;49.124;9.152;2023-06-01T01:03:14;2.47;;;1.52;;
12296;SDS011;6211;49.124;9.152;2023-06-01T01:05:42;2.70;;;1.45;;
12296;SDS011;6211;49.124;9.152;2023-06-01T01:08:12;2.03;;;1.38;;
12296;SDS011;6211;49.124;9.152;2023-06-01T01:10:41;2.80;;;1.70;;
12296;SDS011;6211;49.124;9.152;2023-06-01T01:13:13;2.22;;;1.20;;
12296;SDS011;6211;49.124;9.152;2023-06-01T01:15:43;1.40;;;1.30;;
12296;SDS011;6211;49.124;9.152;2023-06-01T01:18:15;1.50;;;1.38;;
12296;SDS011;6211;49.124;9.152;2023-06-01T01:20:46;2.35;;;1.60;;
12296;SDS011;6211;49.124;9.152;2023-06-01T01:23:19;2.40;;;1.50;;
12296;SDS011;6211;49.124;9.152;2023-06-01T01:25:57;2.10;;;1.58;;
12296;SDS011;6211;49.124;9.152;2023-06-01T01:28:32;2.90;;;1.73;;
12296;SDS011;6211;49.124;9.152;2023-06-01T01:30:59;2.03;;;1.42;;
12296;SDS011;6211;49.124;9.152;2023-06-01T01:33:28;4.13;;;1.48;;
12296;SDS011;6211;49.124;9.152;2023-06-01T01:35:55;4.25;;;1.52;;
12296;SDS011;6211;49.124;9.152;2023-06-01T01:38:23;2.08;;;1.58;;
12296;SDS011;6211;49.124;9.152;2023-06-01T01:40:50;3.63;;;1.50;;
12296;SDS011;6211;49.124;9.152;2023-06-01T01:43:17;1.67;;;1.50;;
12296;SDS011;6211;49.124;9.152;2023-06-01T01:45:46;3.58;;;1.73;;
12296;SDS011;6211;49.124;9.152;2023-06-01T01:48:17;2.38;;;1.50;;
12296;SDS011;6211;49.124;9.152;2023-06-01T01:50:49;2.08;;;1.88;;
12296;SDS011;6211;49.124;9.152;2023-06-01T01:53:17;1.70;;;1.60;;
12296;SDS011;6211;49.124;9.152;2023-06-01T01:55:44;2.22;;;1.80;;
12296;SDS011;6211;49.124;9.152;2023-06-01T01:58:13;2.38;;;1.33;;
12296;SDS011;6211;49.124;9.152;2023-06-01T02:00:40;2.05;;;1.40;;
12296;SDS011;6211;49.124;9.152;2023-06-01T02:03:13;1.80;;;1.70;;
12296;SDS011;6211;49.124;9.152;2023-06-01T02:05:41;2.30;;;1.60;;
12296;SDS011;6211;49.124;9.152;2023-06-01T02:08:08;3.67;;;2.15;;
12296;SDS011;6211;49.124;9.152;2023-06-01T02:10:36;1.90;;;1.40;;
12296;SDS011;6211;49.124;9.152;2023-06-01T02:13:03;1.60;;;1.17;;
12296;SDS011;6211;49.124;9.152;2023-06-01T02:15:30;2.10;;;1.42;;
12296;SDS011;6211;49.124;9.152;2023-06-01T02:17:57;2.30;;;1.65;;
12296;SDS011;6211;49.124;9.152;2023-06-01T02:20:26;2.40;;;1.35;;
12296;SDS011;6211;49.124;9.152;2023-06-01T02:22:53;2.35;;;1.60;;
12296;SDS011;6211;49.124;9.152;2023-06-01T02:25:20;3.00;;;1.70;;
12296;SDS011;6211;49.124;9.152;2023-06-01T02:27:47;2.53;;;1.67;;
12296;SDS011;6211;49.124;9.152;2023-06-01T02:30:14;1.70;;;1.60;;
12296;SDS011;6211;49.124;9.152;2023-06-01T02:32:41;2.45;;;1.58;;
12296;SDS011;6211;49.124;9.152;2023-06-01T02:35:10;5.65;;;1.70;;
12296;SDS011;6211;49.124;9.152;2023-06-01T02:37:38;2.08;;;1.73;;
12296;SDS011;6211;49.124;9.152;2023-06-01T02:40:06;3.22;;;1.63;;
12296;SDS011;6211;49.124;9.152;2023-06-01T02:42:36;1.60;;;1.50;;
12296;SDS011;6211;49.124;9.152;2023-06-01T02:45:04;1.50;;;1.40;;
12296;SDS011;6211;49.124;9.152;2023-06-01T02:47:31;2.78;;;1.70;;
12296;SDS011;6211;49.124;9.152;2023-06-01T02:49:58;1.95;;;1.70;;
12296;SDS011;6211;49.124;9.152;2023-06-01T02:52:25;1.90;;;1.75;;
12296;SDS011;6211;49.124;9.152;2023-06-01T02:54:54;3.05;;;1.75;;
12296;SDS011;6211;49.124;9.152;2023-06-01T02:57:21;2.40;;;1.67;;
12296;SDS011;6211;49.124;9.152;2023-06-01T02:59:49;2.13;;;1.50;;
12296;SDS011;6211;49.124;9.152;2023-06-01T03:02:16;3.58;;;1.40;;
12296;SDS011;6211;49.124;9.152;2023-06-01T03:04:43;3.75;;;1.73;;
12296;SDS011;6211;49.124;9.152;2023-06-01T03:07:10;1.63;;;1.30;;
12296;SDS011;6211;49.124;9.152;2023-06-01T03:09:38;3.78;;;1.23;;
12296;SDS011;6211;49.124;9.152;2023-06-01T03:12:07;1.35;;;1.23;;
12296;SDS011;6211;49.124;9.152;2023-06-01T03:14:34;3.35;;;1.80;;
12296;SDS011;6211;49.124;9.152;2023-06-01T03:17:01;1.48;;;1.38;;
12296;SDS011;6211;49.124;9.152;2023-06-01T03:19:28;3.05;;;1.60;;
12296;SDS011;6211;49.124;9.152;2023-06-01T03:21:55;3.85;;;1.63;;
12296;SDS011;6211;49.124;9.152;2023-06-01T03:24:22;3.60;;;1.48;;
12296;SDS011;6211;49.124;9.152;2023-06-01T03:26:51;1.45;;;1.35;;
12296;SDS011;6211;49.124;9.152;2023-06-01T03:29:19;2.03;;;1.77;;
12296;SDS011;6211;49.124;9.152;2023-06-01T03:31:46;1.52;;;1.42;;
12296;SDS011;6211;49.124;9.152;2023-06-01T03:34:13;1.73;;;1.63;;
12296;SDS011;6211;49.124;9.152;2023-06-01T03:36:41;5.28;;;1.63;;
12296;SDS011;6211;49.124;9.152;2023-06-01T03:39:12;2.92;;;1.85;;
12296;SDS011;6211;49.124;9.152;2023-06-01T03:41:41;3.28;;;1.80;;
12296;SDS011;6211;49.124;9.152;2023-06-01T03:44:08;3.80;;;1.60;;
12296;SDS011;6211;49.124;9.152;2023-06-01T03:46:37;3.60;;;1.30;;
12296;SDS011;6211;49.124;9.152;2023-06-01T03:49:04;1.42;;;1.33;;
12296;SDS011;6211;49.124;9.152;2023-06-01T03:51:31;2.45;;;1.55;;
12296;SDS011;6211;49.124;9.152;2023-06-01T03:53:58;2.78;;;1.60;;
12296;SDS011;6211;49.124;9.152;2023-06-01T03:56:26;3.67;;;1.60;;
12296;SDS011;6211;49.124;9.152;2023-06-01T03:58:53;2.65;;;1.48;;
12296;SDS011;6211;49.124;9.152;2023-06-01T04:01:20;3.60;;;1.67;;
12296;SDS011;6211;49.124;9.152;2023-06-01T04:03:49;1.60;;;1.50;;
12296;SDS011;6211;49.124;9.152;2023-06-01T04:06:16;1.65;;;1.52;;
12296;SDS011;6211;49.124;9.152;2023-06-01T04:08:43;2.75;;;1.80;;
12296;SDS011;6211;49.124;9.152;2023-06-01T04:11:14;1.50;;;1.40;;
12296;SDS011;6211;49.124;9.152;2023-06-01T04:13:41;1.67;;;1.33;;
12296;SDS011;6211;49.124;9.152;2023-06-01T04:16:08;3.65;;;1.90;;
12296;SDS011;6211;49.124;9.152;2023-06-01T04:18:35;2.25;;;1.90;;
12296;SDS011;6211;49.124;9.152;2023-06-01T04:21:04;2.47;;;1.63;;
12296;SDS011;6211;49.124;9.152;2023-06-01T04:23:31;2.70;;;1.70;;
12296;SDS011;6211;49.124;9.152;2023-06-01T04:25:58;1.70;;;1.60;;
12296;SDS011;6211;49.124;9.152;2023-06-01T04:28:27;2.75;;;2.10;;
12296;SDS011;6211;49.124;9.152;2023-06-01T04:30:55;2.22;;;1.45;;
12296;SDS011;6211;49.124;9.152;2023-06-01T04:33:22;5.80;;;1.80;;
12296;SDS011;6211;49.124;9.152;2023-06-01T04:35:49;1.77;;;1.50;;
12296;SDS011;6211;49.124;9.152;2023-06-01T04:38:19;3.30;;;1.73;;
12296;SDS011;6211;49.124;9.152;2023-06-01T04:40:49;3.85;;;2.03;;
12296;SDS011;6211;49.124;9.152;2023-06-01T04:43:18;3.13;;;1.63;;
12296;SDS011;6211;49.124;9.152;2023-06-01T04:45:45;6.72;;;1.75;;
12296;SDS011;6211;49.124;9.152;2023-06-01T04:48:13;1.85;;;1.67;;
12296;SDS011;6211;49.124;9.152;2023-06-01T04:50:41;2.47;;;1.95;;
12296;SDS011;6211;49.124;9.152;2023-06-01T04:53:09;1.75;;;1.52;;
12296;SDS011;6211;49.124;9.152;2023-06-01T04:55:38;2.55;;;1.95;;
12296;SDS011;6211;49.124;9.152;2023-06-01T04:58:05;3.05;;;1.42;;
12296;SDS011;6211;49.124;9.152;2023-06-01T05:00:32;2.00;;;1.77;;
12296;SDS011;6211;49.124;9.152;2023-06-01T05:03:00;2.15;;;1.95;;
12296;SDS011;6211;49.124;9.152;2023-06-01T05:05:27;1.70;;;1.60;;
12296;SDS011;6211;49.124;9.152;2023-06-01T05:07:55;3.92;;;1.83;;
12296;SDS011;6211;49.124;9.152;2023-06-01T05:10:23;1.73;;;1.63;;
12296;SDS011;6211;49.124;9.152;2023-06-01T05:12:51;4.50;;;2.13;;
12296;SDS011;6211;49.124;9.152;2023-06-01T05:15:18;2.85;;;1.90;;
12296;SDS011;6211;49.124;9.152;2023-06-01T05:17:45;4.93;;;1.67;;
12296;SDS011;6211;49.124;9.152;2023-06-01T05:20:12;4.60;;;2.75;;
12296;SDS011;6211;49.124;9.152;2023-06-01T05:22:40;2.13;;;1.92;;
12296;SDS011;6211;49.124;9.152;2023-06-01T05:25:08;3.10;;;1.60;;
12296;SDS011;6211;49.124;9.152;2023-06-01T05:27:35;2.63;;;2.28;;
12296;SDS011;6211;49.124;9.152;2023-06-01T05:30:04;2.80;;;2.00;;
12296;SDS011;6211;49.124;9.152;2023-06-01T05:32:32;2.97;;;1.85;;
12296;SDS011;6211;49.124;9.152;2023-06-01T05:34:59;3.92;;;1.90;;
12296;SDS011;6211;49.124;9.152;2023-06-01T05:37:26;4.68;;;1.80;;
12296;SDS011;6211;49.124;9.152;2023-06-01T05:39:53;2.80;;;1.80;;
12296;SDS011;6211;49.124;9.152;2023-06-01T05:42:20;3.60;;;1.80;;
12296;SDS011;6211;49.124;9.152;2023-06-01T05:44:47;3.03;;;1.85;;
12296;SDS011;6211;49.124;9.152;2023-06-01T05:47:15;3.33;;;1.88;;
12296;SDS011;6211;49.124;9.152;2023-06-01T05:49:42;2.17;;;1.95;;
12296;SDS011;6211;49.124;9.152;2023-06-01T05:52:10;4.07;;;1.80;;
12296;SDS011;6211;49.124;9.152;2023-06-01T05:54:38;5.15;;;2.10;;
12296;SDS011;6211;49.124;9.152;2023-06-01T05:57:06;2.47;;;2.00;;
12296;SDS011;6211;49.124;9.152;2023-06-01T05:59:33;2.25;;;1.90;;
12296;SDS011;6211;49.124;9.152;2023-06-01T06:02:00;4.30;;;1.80;;
12296;SDS011;6211;49.124;9.152;2023-06-01T06:04:28;2.67;;;1.50;;
12296;SDS011;6211;49.124;9.152;2023-06-01T06:06:55;5.60;;;1.90;;
12296;SDS011;6211;49.124;9.152;2023-06-01T06:09:22;4.40;;;1.70;;
12296;SDS011;6211;49.124;9.152;2023-06-01T06:11:50;2.75;;;1.60;;
12296;SDS011;6211;49.124;9.152;2023-06-01T06:14:17;3.72;;;1.73;;
12296;SDS011;6211;49.124;9.152;2023-06-01T06:16:44;2.78;;;1.90;;
12296;SDS011;6211;49.124;9.152;2023-06-01T06:19:11;4.93;;;1.67;;
12296;SDS011;6211;49.124;9.152;2023-06-01T06:21:42;3.97;;;2.00;;
12296;SDS011;6211;49.124;9.152;2023-06-01T06:24:09;4.25;;;2.00;;
12296;SDS011;6211;49.124;9.152;2023-06-01T06:26:37;2.10;;;1.52;;
12296;SDS011;6211;49.124;9.152;2023-06-01T06:29:04;3.17;;;2.20;;
12296;SDS011;6211;49.124;9.152;2023-06-01T06:31:31;3.47;;;2.15;;
12296;SDS011;6211;49.124;9.152;2023-06-01T06:33:59;5.68;;;1.88;;
12296;SDS011;6211;49.124;9.152;2023-06-01T06:36:26;2.58;;;1.63;;
12296;SDS011;6211;49.124;9.152;2023-06-01T06:38:54;4.43;;;1.70;;
12296;SDS011;6211;49.124;9.152;2023-06-01T06:41:21;1.88;;;1.52;;
12296;SDS011;6211;49.124;9.152;2023-06-01T06:43:49;2.60;;;1.75;;
12296;SDS011;6211;49.124;9.152;2023-06-01T06:46:16;6.28;;;2.00;;
12296;SDS011;6211;49.124;9.152;2023-06-01T06:48:43;2.70;;;1.73;;
12296;SDS011;6211;49.124;9.152;2023-06-01T06:51:10;2.67;;;1.60;;
12296;SDS011;6211;49.124;9.152;2023-06-01T06:53:37;2.70;;;1.70;;
12296;SDS011;6211;49.124;9.152;2023-06-01T06:56:06;1.85;;;1.52;;
12296;SDS011;6211;49.124;9.152;2023-06-01T06:58:33;3.22;;;1.95;;
12296;SDS011;6211;49.124;9.152;2023-06-01T07:01:01;2.28;;;1.52;;
12296;SDS011;6211;49.124;9.152;2023-06-01T07:03:30;2.88;;;1.65;;
12296;SDS011;6211;49.124;9.152;2023-06-01T07:05:57;2.22;;;1.70;;
12296;SDS011;6211;49.124;9.152;2023-06-01T07:08:24;1.67;;;1.58;;
12296;SDS011;6211;49.124;9.152;2023-06-01T07:10:52;3.17;;;1.60;;
12296;SDS011;6211;49.124;9.152;2023-06-01T07:13:22;2.35;;;1.95;;
12296;SDS011;6211;49.124;9.152;2023-06-01T07:15:49;2.50;;;1.63;;
12296;SDS011;6211;49.124;9.152;2023-06-01T07:18:16;4.57;;;1.60;;
12296;SDS011;6211;49.124;9.152;2023-06-01T07:20:43;3.10;;;1.92;;
12296;SDS011;6211;49.124;9.152;2023-06-01T07:23:10;1.40;;;1.27;;
12296;SDS011;6211;49.124;9.152;2023-06-01T07:25:38;2.33;;;1.52;;
12296;SDS011;6211;49.124;9.152;2023-06-01T07:28:05;2.17;;;1.52;;
12296;SDS011;6211;49.124;9.152;2023-06-01T07:30:34;2.50;;;1.63;;
12296;SDS011;6211;49.124;9.152;2023-06-01T07:33:02;2.55;;;1.80;;
12296;SDS011;6211;49.124;9.152;2023-06-01T07:35:29;3.55;;;1.98;;
12296;SDS011;6211;49.124;9.152;2023-06-01T07:37:57;2.75;;;1.50;;
12296;SDS011;6211;49.124;9.152;2023-06-01T07:40:25;3.53;;;1.73;;
12296;SDS011;6211;49.124;9.152;2023-06-01T07:42:52;1.83;;;1.70;;
12296;SDS011;6211;49.124;9.152;2023-06-01T07:45:19;3.65;;;1.40;;
12296;SDS011;6211;49.124;9.152;2023-06-01T07:47:48;2.05;;;1.60;;
12296;SDS011;6211;49.124;9.152;2023-06-01T07:50:15;3.90;;;1.83;;
12296;SDS011;6211;49.124;9.152;2023-06-01T07:52:42;3.58;;;1.77;;
12296;SDS011;6211;49.124;9.152;2023-06-01T07:55:10;3.65;;;1.63;;
12296;SDS011;6211;49.124;9.152;2023-06-01T07:57:40;3.92;;;1.83;;
12296;SDS011;6211;49.124;9.152;2023-06-01T08:00:08;2.95;;;2.08;;
12296;SDS011;6211;49.124;9.152;2023-06-01T08:02:37;4.07;;;1.70;;
12296;SDS011;6211;49.124;9.152;2023-06-01T08:05:07;2.45;;;1.60;;
12296;SDS011;6211;49.124;9.152;2023-06-01T08:07:34;3.78;;;1.80;;
12296;SDS011;6211;49.124;9.152;2023-06-01T08:10:03;5.30;;;2.00;;
12296;SDS011;6211;49.124;9.152;2023-06-01T08:12:30;3.70;;;2.10;;
12296;SDS011;6211;49.124;9.152;2023-06-01T08:14:57;1.98;;;1.77;;
12296;SDS011;6211;49.124;9.152;2023-06-01T08:17:24;2.85;;;1.88;;
12296;SDS011;6211;49.124;9.152;2023-06-01T08:19:52;5.97;;;2.67;;
12296;SDS011;6211;49.124;9.152;2023-06-01T08:22:21;2.15;;;1.67;;
12296;SDS011;6211;49.124;9.152;2023-06-01T08:24:49;5.38;;;2.05;;
12296;SDS011;6211;49.124;9.152;2023-06-01T08:27:18;2.97;;;2.22;;
12296;SDS011;6211;49.124;9.152;2023-06-01T08:29:45;2.25;;;1.80;;
12296;SDS011;6211;49.124;9.152;2023-06-01T08:32:13;3.53;;;1.90;;
12296;SDS011;6211;49.124;9.152;2023-06-01T08:34:40;1.95;;;1.80;;
12296;SDS011;6211;49.124;9.152;2023-06-01T08:37:07;2.75;;;1.85;;
12296;SDS011;6211;49.124;9.152;2023-06-01T08:39:36;5.85;;;1.92;;
12296;SDS011;6211;49.124;9.152;2023-06-01T08:42:05;2.92;;;1.85;;
12296;SDS011;6211;49.124;9.152;2023-06-01T08:44:34;3.55;;;2.10;;
12296;SDS011;6211;49.124;9.152;2023-06-01T08:47:02;2.08;;;1.65;;
12296;SDS011;6211;49.124;9.152;2023-06-01T08:49:30;4.68;;;1.73;;
12296;SDS011;6211;49.124;9.152;2023-06-01T08:51:57;1.80;;;1.50;;
12296;SDS011;6211;49.124;9.152;2023-06-01T08:54:25;3.08;;;1.60;;
12296;SDS011;6211;49.124;9.152;2023-06-01T08:56:55;3.65;;;1.80;;
12296;SDS011;6211;49.124;9.152;2023-06-01T08:59:22;7.20;;;2.40;;
12296;SDS011;6211;49.124;9.152;2023-06-01T09:01:49;2.10;;;1.90;;
12296;SDS011;6211;49.124;9.152;2023-06-01T09:04:16;2.17;;;1.60;;
12296;SDS011;6211;49.124;9.152;2023-06-01T09:06:44;3.13;;;2.05;;
12296;SDS011;6211;49.124;9.152;2023-06-01T09:09:11;2.72;;;1.95;;
12296;SDS011;6211;49.124;9.152;2023-06-01T09:11:39;3.25;;;1.83;;
12296;SDS011;6211;49.124;9.152;2023-06-01T09:14:20;4.03;;;2.00;;
12296;SDS011;6211;49.124;9.152;2023-06-01T09:16:47;3.38;;;1.95;;
12296;SDS011;6211;49.124;9.152;2023-06-01T09:19:15;4.10;;;2.10;;
12296;SDS011;6211;49.124;9.152;2023-06-01T09:21:54;2.75;;;2.10;;
12296;SDS011;6211;49.124;9.152;2023-06-01T09:24:22;3.35;;;2.03;;
12296;SDS011;6211;49.124;9.152;2023-06-01T09:26:50;5.05;;;1.90;;
12296;SDS011;6211;49.124;9.152;2023-06-01T09:29:17;2.75;;;1.90;;
12296;SDS011;6211;49.124;9.152;2023-06-01T09:31:47;3.00;;;1.77;;
12296;SDS011;6211;49.124;9.152;2023-06-01T09:34:15;3.83;;;2.30;;
12296;SDS011;6211;49.124;9.152;2023-06-01T09:36:43;3.90;;;1.88;;
12296;SDS011;6211;49.124;9.152;2023-06-01T09:39:11;6.55;;;2.15;;
12296;SDS011;6211;49.124;9.152;2023-06-01T09:41:46;2.15;;;1.80;;
12296;SDS011;6211;49.124;9.152;2023-06-01T09:44:13;3.92;;;2.40;;
12296;SDS011;6211;49.124;9.152;2023-06-01T09:46:48;2.30;;;1.85;;
12296;SDS011;6211;49.124;9.152;2023-06-01T09:49:19;3.65;;;2.38;;
12296;SDS011;6211;49.124;9.152;2023-06-01T09:51:46;3.35;;;2.10;;
12296;SDS011;6211;49.124;9.152;2023-06-01T09:54:27;4.05;;;2.50;;
12296;SDS011;6211;49.124;9.152;2023-06-01T09:56:54;5.55;;;2.15;;
12296;SDS011;6211;49.124;9.152;2023-06-01T09:59:21;2.92;;;2.22;;
12296;SDS011;6211;49.124;9.152;2023-06-01T10:01:51;3.40;;;2.10;;
12296;SDS011;6211;49.124;9.152;2023-06-01T10:04:22;2.45;;;2.22;;
12296;SDS011;6211;49.124;9.152;2023-06-01T10:06:49;2.53;;;2.33;;
12296;SDS011;6211;49.124;9.152;2023-06-01T10:09:17;4.07;;;2.63;;
12296;SDS011;6211;49.124;9.152;2023-06-01T10:11:46;3.58;;;2.38;;
12296;SDS011;6211;49.124;9.152;2023-06-01T10:14:13;3.80;;;2.67;;
12296;SDS011;6211;49.124;9.152;2023-06-01T10:16:41;2.75;;;2.47;;
12296;SDS011;6211;49.124;9.152;2023-06-01T10:19:09;4.70;;;2.35;;
12296;SDS011;6211;49.124;9.152;2023-06-01T10:21:37;3.30;;;2.10;;
12296;SDS011;6211;49.124;9.152;2023-06-01T10:24:07;2.88;;;2.10;;
12296;SDS011;6211;49.124;9.152;2023-06-01T10:26:37;2.75;;;2.22;;
12296;SDS011;6211;49.124;9.152;2023-06-01T10:29:06;2.30;;;2.10;;
12296;SDS011;6211;49.124;9.152;2023-06-01T10:31:35;2.67;;;2.10;;
12296;SDS011;6211;49.124;9.152;2023-06-01T10:34:02;4.22;;;2.30;;
12296;SDS011;6211;49.124;9.152;2023-06-01T10:39:23;1.98;;;1.77;;
12296;SDS011;6211;49.124;9.152;2023-06-01T10:41:50;2.05;;;1.70;;
12296;SDS011;6211;49.124;9.152;2023-06-01T10:47:03;1.80;;;1.65;;
12296;SDS011;6211;49.124;9.152;2023-06-01T10:52:24;2.15;;;1.92;;
12296;SDS011;6211;49.124;9.152;2023-06-01T10:54:53;3.05;;;1.92;;
12296;SDS011;6211;49.124;9.152;2023-06-01T10:57:21;3.63;;;1.70;;
12296;SDS011;6211;49.124;9.152;2023-06-01T11:02:34;3.30;;;1.73;;
12296;SDS011;6211;49.124;9.152;2023-06-01T11:07:51;3.28;;;1.60;;
12296;SDS011;6211;49.124;9.152;2023-06-01T11:13:14;3.25;;;1.30;;
12296;SDS011;6211;49.124;9.152;2023-06-01T11:21:22;3.00;;;1.67;;
12296;SDS011;6211;49.124;9.152;2023-06-01T11:23:50;1.50;;;1.40;;
12296;SDS011;6211;49.124;9.152;2023-06-01T11:26:19;1.58;;;1.40;;
12296;SDS011;6211;49.124;9.152;2023-06-01T11:28:51;1.55;;;1.33;;
12296;SDS011;6211;49.124;9.152;2023-06-01T11:31:19;1.40;;;1.20;;
12296;SDS011;6211;49.124;9.152;2023-06-01T11:33:48;1.90;;;1.40;;
12296;SDS011;6211;49.124;9.152;2023-06-01T11:36:17;1.85;;;1.58;;
12296;SDS011;6211;49.124;9.152;2023-06-01T11:38:49;1.65;;;1.50;;
12296;SDS011;6211;49.124;9.152;2023-06-01T11:41:18;1.35;;;1.25;;
12296;SDS011;6211;49.124;9.152;2023-06-01T11:43:54;1.38;;;1.27;;
12296;SDS011;6211;49.124;9.152;2023-06-01T11:46:22;1.50;;;1.40;;
12296;SDS011;6211;49.124;9.152;2023-06-01T11:51:38;2.00;;;1.30;;
12296;SDS011;6211;49.124;9.152;2023-06-01T11:54:07;1.67;;;1.33;;
12296;SDS011;6211;49.124;9.152;2023-06-01T11:56:35;2.42;;;1.17;;
12296;SDS011;6211;49.124;9.152;2023-06-01T11:59:05;1.48;;;1.17;;
12296;SDS011;6211;49.124;9.152;2023-06-01T12:01:34;1.83;;;1.33;;
12296;SDS011;6211;49.124;9.152;2023-06-01T12:04:03;2.20;;;1.23;;
12296;SDS011;6211;49.124;9.152;2023-06-01T12:06:33;1.42;;;1.08;;
12296;SDS011;6211;49.124;9.152;2023-06-01T12:09:01;2.45;;;1.38;;
12296;SDS011;6211;49.124;9.152;2023-06-01T12:11:28;1.20;;;1.10;;
12296;SDS011;6211;49.124;9.152;2023-06-01T12:13:56;1.40;;;1.10;;
12296;SDS011;6211;49.124;9.152;2023-06-01T12:16:25;1.30;;;1.20;;
12296;SDS011;6211;49.124;9.152;2023-06-01T12:19:14;1.30;;;1.20;;
12296;SDS011;6211;49.124;9.152;2023-06-01T12:21:46;2.97;;;1.40;;
12296;SDS011;6211;49.124;9.152;2023-06-01T12:24:13;2.67;;;1.30;;
12296;SDS011;6211;49.124;9.152;2023-06-01T12:26:40;1.20;;;1.10;;
12296;SDS011;6211;49.124;9.152;2023-06-01T12:29:07;1.45;;;1.25;;
12296;SDS011;6211;49.124;9.152;2023-06-01T12:31:35;1.70;;;1.17;;
12296;SDS011;6211;49.124;9.152;2023-06-01T12:34:02;2.58;;;1.13;;
12296;SDS011;6211;49.124;9.152;2023-06-01T12:36:30;1.20;;;1.10;;
12296;SDS011;6211;49.124;9.152;2023-06-01T12:38:58;1.58;;;1.02;;
12296;SDS011;6211;49.124;9.152;2023-06-01T12:41:26;1.30;;;1.20;;
12296;SDS011;6211;49.124;9.152;2023-06-01T12:43:54;1.38;;;1.27;;
12296;SDS011;6211;49.124;9.152;2023-06-01T12:46:21;1.08;;;1.08;;
12296;SDS011;6211;49.124;9.152;2023-06-01T12:48:51;1.20;;;1.10;;
12296;SDS011;6211;49.124;9.152;2023-06-01T12:51:19;1.27;;;1.10;;
12296;SDS011;6211;49.124;9.152;2023-06-01T12:53:46;1.25;;;1.00;;
12296;SDS011;6211;49.124;9.152;2023-06-01T12:56:13;1.60;;;1.08;;
12296;SDS011;6211;49.124;9.152;2023-06-01T12:58:40;1.35;;;1.20;;
12296;SDS011;6211;49.124;9.152;2023-06-01T13:01:07;0.93;;;0.90;;
12296;SDS011;6211;49.124;9.152;2023-06-01T13:03:34;1.75;;;1.20;;
12296;SDS011;6211;49.124;9.152;2023-06-01T13:06:03;0.90;;;0.90;;
12296;SDS011;6211;49.124;9.152;2023-06-01T13:08:30;2.10;;;1.00;;
12296;SDS011;6211;49.124;9.152;2023-06-01T13:10:57;1.67;;;1.15;;
12296;SDS011;6211;49.124;9.152;2023-06-01T13:13:25;2.83;;;1.02;;
12296;SDS011;6211;49.124;9.152;2023-06-01T13:15:52;1.20;;;1.10;;
12296;SDS011;6211;49.124;9.152;2023-06-01T13:18:19;1.67;;;1.20;;
12296;SDS011;6211;49.124;9.152;2023-06-01T13:20:46;1.23;;;1.13;;
12296;SDS011;6211;49.124;9.152;2023-06-01T13:23:15;1.48;;;1.10;;
12296;SDS011;6211;49.124;9.152;2023-06-01T13:25:43;1.00;;;1.00;;
12296;SDS011;6211;49.124;9.152;2023-06-01T13:28:10;2.08;;;1.15;;
12296;SDS011;6211;49.124;9.152;2023-06-01T13:30:38;3.08;;;1.42;;
12296;SDS011;6211;49.124;9.152;2023-06-01T13:33:05;1.60;;;1.20;;
12296;SDS011;6211;49.124;9.152;2023-06-01T13:35:32;1.20;;;1.10;;
12296;SDS011;6211;49.124;9.152;2023-06-01T13:37:59;1.13;;;1.02;;
12296;SDS011;6211;49.124;9.152;2023-06-01T13:40:28;1.85;;;1.30;;
12296;SDS011;6211;49.124;9.152;2023-06-01T13:42:55;1.30;;;1.10;;
12296;SDS011;6211;49.124;9.152;2023-06-01T13:45:22;4.65;;;1.63;;
12296;SDS011;6211;49.124;9.152;2023-06-01T13:47:50;1.65;;;1.20;;
12296;SDS011;6211;49.124;9.152;2023-06-01T13:50:20;2.25;;;1.00;;
12296;SDS011;6211;49.124;9.152;2023-06-01T13:52:47;1.20;;;1.10;;
12296;SDS011;6211;49.124;9.152;2023-06-01T13:55:14;1.40;;;1.23;;
12296;SDS011;6211;49.124;9.152;2023-06-01T13:57:43;1.27;;;1.17;;
12296;SDS011;6211;49.124;9.152;2023-06-01T14:00:11;1.33;;;1.23;;
12296;SDS011;6211;49.124;9.152;2023-06-01T14:02:39;0.98;;;0.90;;
12296;SDS011;6211;49.124;9.152;2023-06-01T14:05:06;1.20;;;1.10;;
12296;SDS011;6211;49.124;9.152;2023-06-01T14:07:35;1.20;;;1.10;;
12296;SDS011;6211;49.124;9.152;2023-06-01T14:10:03;1.20;;;1.05;;
12296;SDS011;6211;49.124;9.152;2023-06-01T14:12:30;1.20;;;1.10;;
12296;SDS011;6211;49.124;9.152;2023-06-01T14:14:59;1.00;;;1.00;;
12296;SDS011;6211;49.124;9.152;2023-06-01T14:17:26;1.40;;;1.30;;
12296;SDS011;6211;49.124;9.152;2023-06-01T14:19:53;1.90;;;1.35;;
12296;SDS011;6211;49.124;9.152;2023-06-01T14:22:20;1.55;;;1.00;;
12296;SDS011;6211;49.124;9.152;2023-06-01T14:24:47;2.22;;;1.10;;
12296;SDS011;6211;49.124;9.152;2023-06-01T14:27:14;2.05;;;1.35;;
12296;SDS011;6211;49.124;9.152;2023-06-01T14:29:41;1.20;;;1.15;;
12296;SDS011;6211;49.124;9.152;2023-06-01T14:32:10;1.50;;;1.20;;
12296;SDS011;6211;49.124;9.152;2023-06-01T14:34:37;1.23;;;1.15;;
12296;SDS011;6211;49.124;9.152;2023-06-01T14:37:04;1.17;;;1.08;;
12296;SDS011;6211;49.124;9.152;2023-06-01T14:39:35;2.88;;;1.35;;
12296;SDS011;6211;49.124;9.152;2023-06-01T14:42:03;1.33;;;1.00;;
12296;SDS011;6211;49.124;9.152;2023-06-01T14:44:30;2.47;;;1.20;;
12296;SDS011;6211;49.124;9.152;2023-06-01T14:46:57;1.98;;;1.20;;
12296;SDS011;6211;49.124;9.152;2023-06-01T14:49:25;1.38;;;1.10;;
12296;SDS011;6211;49.124;9.152;2023-06-01T14:51:53;1.20;;;1.10;;
12296;SDS011;6211;49.124;9.152;2023-06-01T14:54:20;1.17;;;1.08;;
12296;SDS011;6211;49.124;9.152;2023-06-01T14:56:47;1.60;;;1.20;;
12296;SDS011;6211;49.124;9.152;2023-06-01T14:59:14;1.10;;;1.00;;
12296;SDS011;6211;49.124;9.152;2023-06-01T15:01:41;1.75;;;1.20;;
12296;SDS011;6211;49.124;9.152;2023-06-01T15:04:08;1.40;;;1.30;;
12296;SDS011;6211;49.124;9.152;2023-06-01T15:06:37;1.30;;;1.13;;
12296;SDS011;6211;49.124;9.152;2023-06-01T15:09:04;1.45;;;1.35;;
12296;SDS011;6211;49.124;9.152;2023-06-01T15:11:31;1.10;;;1.10;;
12296;SDS011;6211;49.124;9.152;2023-06-01T15:13:58;0.98;;;0.98;;
12296;SDS011;6211;49.124;9.152;2023-06-01T15:16:25;1.50;;;1.20;;
12296;SDS011;6211;49.124;9.152;2023-06-01T15:18:52;1.98;;;1.05;;
12296;SDS011;6211;49.124;9.152;2023-06-01T15:21:20;1.30;;;1.20;;
12296;SDS011;6211;49.124;9.152;2023-06-01T15:23:48;1.20;;;1.10;;
12296;SDS011;6211;49.124;9.152;2023-06-01T15:26:15;1.27;;;1.08;;
12296;SDS011;6211;49.124;9.152;2023-06-01T15:28:42;1.02;;;1.00;;
12296;SDS011;6211;49.124;9.152;2023-06-01T15:31:09;2.35;;;1.40;;